Agua Bronca, Mexico

9:53 AM MDT on May 29, 2017 (GMT -0600)
Abraham Gonzalez International | | Change Station

Elev 3842 ft 31.63 °N, 106.43 °W | Updated 1 hour ago

Clear
Clear
79 °F
Feels Like 79 °F
N
12
Wind Variable Wind from East

Today
High -- | Low -- °F
--% Chance of Precip.
Yesterday
High -- | Low -- °F
Precip. -- in
Pressure 29.81 in
Visibility 10.0 miles
Clouds Clear
Dew Point 37 °F
Humidity 23%
Rainfall 0.00 in
Snow Depth Not available.
6:00 AM 8:00 PM
Waxing Crescent, 20% visible
METAR MMCS 291451Z 09010KT 10SM SKC 26/03 A3008 RMK SLP092 52013 909
Pressure 29.81 in
Visibility 10.0 miles
Clouds Clear
Dew Point 37 °F
Humidity 23%
Rainfall 0.00 in
Snow Depth Not available.
6:00 AM 8:00 PM
Waxing Crescent, 20% visible
METAR MMCS 291451Z 09010KT 10SM SKC 26/03 A3008 RMK SLP092 52013 909

Get Severe Weather Alerts

Thanks for signing up!

Be on the lookout for a verification email in your inbox.

You'll start receiving the daily forecast at 6 AM.

×

10-Day Weather Forecast

No radar image for this location.
×

Almanac

Astronomy

May. 29, 2017 Rise Set
Actual Time
Civil Twilight
Nautical Twilight
Astronomical Twilight
Moon
Length of Visible Light
Length of Day
Tomorrow will be .
, % of the Moon is Illuminated

Today's Extremes

Country Highs Country Lows

Community

WunderPhotos

Category 6

Welcome to Category 6. This is the collective home for Weather Underground's featured writeups by Dr. Jeff Masters (right), Bob Henson (left), Chris Burt, and other regular contributors.

Nearby

Air Quality

  Air Quality AQ Index Pollutant
Not available.

Snow Depth

Station Depth Elevation

Earthquake Activity

City Distance Mag. Time & Date
Minimum magnitude displayed is 2.5.

Coastal Water Temperatures

Place Temperature

Stations

Nearby Weather Stations

Station Location Temp. Windchill Dew Point Humidity Wind Precip. Elev Updated Type